Time;durP1;ratioP1;P1;durP2;ratioP2;P2;SDS_P1;SDS_P2;PMS_P1;PMS_P2;Temp;Humidity;BMP_temperature;BMP_pressure;BME280_temperature;BME280_humidity;BME280_pressure;Samples;Min_cycle;Max_cycle;Signal;HPM_P1;HPM_P2
2023/05/06 00:01:21;;;;;;;13.40;5.50;;;;;;;7.99;57.74;99522.12;105089;1257;96584;-81
2023/05/06 00:03:50;;;;;;;17.70;6.10;;;;;;;7.95;57.64;99521.79;105041;1257;107968;-81
2023/05/06 00:06:18;;;;;;;16.30;6.80;;;;;;;7.94;57.71;99523.30;105110;1259;96671;-81
2023/05/06 00:08:46;;;;;;;15.30;6.80;;;;;;;7.93;57.86;99517.34;105031;1257;97864;-80
2023/05/06 00:11:15;;;;;;;13.00;5.60;;;;;;;7.92;57.82;99517.05;105027;1259;111138;-80
2023/05/06 00:13:42;;;;;;;17.20;6.00;;;;;;;7.89;58.02;99516.80;105059;1257;97921;-81
2023/05/06 00:16:10;;;;;;;15.20;5.90;;;;;;;7.87;57.98;99513.94;105049;1264;107834;-81
2023/05/06 00:18:39;;;;;;;18.10;5.80;;;;;;;7.85;58.03;99517.92;105044;1266;97406;-81
2023/05/06 00:21:07;;;;;;;16.30;6.50;;;;;;;7.84;58.02;99517.98;105055;1256;96574;-81
2023/05/06 00:23:36;;;;;;;13.50;5.60;;;;;;;7.81;58.10;99521.14;105060;1267;111110;-79
2023/05/06 00:26:05;;;;;;;14.00;6.70;;;;;;;7.79;58.36;99520.55;105207;1257;97598;-79
2023/05/06 00:28:33;;;;;;;14.20;5.50;;;;;;;7.75;58.20;99516.70;105162;1266;106864;-80
2023/05/06 00:31:01;;;;;;;12.40;5.30;;;;;;;7.71;58.37;99515.31;105141;1264;97942;-80
2023/05/06 00:33:29;;;;;;;12.40;5.50;;;;;;;7.68;58.29;99515.45;105034;1266;97403;-80
2023/05/06 00:35:57;;;;;;;15.60;6.10;;;;;;;7.67;58.21;99517.13;105084;1259;111086;-80
2023/05/06 00:38:26;;;;;;;14.60;6.00;;;;;;;7.66;58.31;99516.84;105033;1257;96607;-80
2023/05/06 00:40:53;;;;;;;16.60;6.00;;;;;;;7.65;58.42;99516.33;105089;1256;108793;-80
2023/05/06 00:43:21;;;;;;;12.70;5.50;;;;;;;7.64;58.43;99518.87;105075;1266;97941;-80
2023/05/06 00:45:50;;;;;;;17.00;6.10;;;;;;;7.61;58.59;99516.39;105121;1254;96772;-80
2023/05/06 00:48:18;;;;;;;13.60;5.60;;;;;;;7.60;58.62;99511.83;105062;1265;110232;-80
2023/05/06 00:50:46;;;;;;;14.70;5.60;;;;;;;7.59;58.72;99509.78;105017;1268;97367;-80
2023/05/06 00:53:17;;;;;;;14.30;5.80;;;;;;;7.57;58.72;99507.38;105021;1257;108508;-80
2023/05/06 00:55:46;;;;;;;9.60;5.20;;;;;;;7.57;58.91;99508.97;105069;1260;97508;-80
2023/05/06 00:58:14;;;;;;;12.20;5.10;;;;;;;7.57;58.80;99509.54;105067;1256;97425;-80
2023/05/06 01:00:43;;;;;;;12.80;5.00;;;;;;;7.56;58.87;99506.05;105003;1267;109446;-80
2023/05/06 01:03:11;;;;;;;15.70;6.00;;;;;;;7.55;58.83;99509.44;105057;1261;96673;-80
2023/05/06 01:05:58;;;;;;;12.80;5.90;;;;;;;7.55;58.79;99514.06;105046;1266;108917;-81
2023/05/06 01:08:33;;;;;;;10.90;5.00;;;;;;;7.53;58.81;99509.56;105120;1261;97424;-81
2023/05/06 01:11:16;;;;;;;13.40;5.70;;;;;;;7.52;58.93;99512.27;105061;1254;96609;-80
2023/05/06 01:13:55;;;;;;;11.90;5.10;;;;;;;7.51;59.06;99516.21;104990;1266;109900;-81
2023/05/06 01:16:25;;;;;;;11.60;5.20;;;;;;;7.48;59.12;99514.41;105047;1255;96673;-80
2023/05/06 01:18:53;;;;;;;11.40;5.30;;;;;;;7.47;59.18;99521.72;105145;1267;108967;-81
2023/05/06 01:21:25;;;;;;;13.90;5.40;;;;;;;7.45;59.24;99523.39;105155;1266;96668;-80
2023/05/06 01:23:56;;;;;;;17.80;6.20;;;;;;;7.44;59.27;99531.89;105069;1265;97510;-80
2023/05/06 01:26:26;;;;;;;14.70;5.70;;;;;;;7.42;59.21;99527.23;105077;1259;111112;-80
2023/05/06 01:28:54;;;;;;;13.10;5.80;;;;;;;7.41;59.41;99524.48;105102;1257;96575;-80
2023/05/06 01:31:26;;;;;;;14.00;5.10;;;;;;;7.39;59.35;99519.48;105141;1257;108631;-80
2023/05/06 01:34:17;;;;;;;11.00;5.10;;;;;;;7.37;59.37;99511.98;105220;1257;96657;-80
2023/05/06 01:37:03;;;;;;;12.70;5.20;;;;;;;7.35;59.61;99511.90;105074;1263;97083;-81
2023/05/06 01:39:33;;;;;;;14.80;5.90;;;;;;;7.32;59.54;99507.66;105150;1263;109095;-81
2023/05/06 01:42:01;;;;;;;19.30;5.10;;;;;;;7.31;59.57;99507.17;105316;1260;97413;-81
2023/05/06 01:44:33;;;;;;;12.40;5.60;;;;;;;7.30;59.60;99508.98;105392;1260;108863;-80
2023/05/06 01:47:01;;;;;;;14.10;5.10;;;;;;;7.30;59.64;99510.41;105352;1251;97662;-81
2023/05/06 01:49:29;;;;;;;11.60;5.40;;;;;;;7.29;59.68;99512.92;105251;1257;96567;-81
2023/05/06 01:51:57;;;;;;;12.50;5.40;;;;;;;7.28;59.73;99509.44;105222;1257;108991;-80
2023/05/06 01:54:25;;;;;;;13.20;5.80;;;;;;;7.27;59.92;99507.58;105257;1256;97833;-80
2023/05/06 01:56:53;;;;;;;21.20;6.40;;;;;;;7.25;59.76;99507.33;105246;1255;108729;-81
2023/05/06 01:59:21;;;;;;;13.70;5.30;;;;;;;7.24;59.89;99503.84;105176;1257;96710;-81
2023/05/06 02:01:49;;;;;;;14.30;5.00;;;;;;;7.22;59.91;99501.29;105213;1264;96683;-80
2023/05/06 02:04:17;;;;;;;15.10;6.40;;;;;;;7.21;60.01;99497.47;105217;1265;110951;-80
2023/05/06 02:06:45;;;;;;;13.40;5.40;;;;;;;7.20;59.93;99491.73;105261;1264;96567;-81
2023/05/06 02:09:12;;;;;;;15.60;5.80;;;;;;;7.18;60.01;99491.10;105155;1257;106971;-80
2023/05/06 02:11:40;;;;;;;13.30;6.00;;;;;;;7.15;60.01;99490.36;105157;1256;96589;-81
2023/05/06 02:14:08;;;;;;;12.30;5.40;;;;;;;7.14;60.17;99489.36;105185;1255;96618;-80
2023/05/06 02:16:36;;;;;;;13.00;5.40;;;;;;;7.12;60.23;99485.74;105233;1260;111056;-80
2023/05/06 02:19:05;;;;;;;14.80;5.80;;;;;;;7.10;60.17;99481.10;105187;1260;97806;-80
2023/05/06 02:21:33;;;;;;;12.80;5.50;;;;;;;7.08;60.26;99485.42;105264;1264;107032;-81
2023/05/06 02:24:00;;;;;;;14.60;5.10;;;;;;;7.07;60.33;99482.33;105174;1261;96635;-80
2023/05/06 02:26:28;;;;;;;12.20;5.40;;;;;;;7.05;60.32;99480.48;105176;1257;96503;-81
2023/05/06 02:28:56;;;;;;;14.50;5.80;;;;;;;7.02;60.40;99484.48;105236;1260;110206;-81
2023/05/06 02:31:24;;;;;;;13.70;5.60;;;;;;;6.99;60.46;99481.98;105043;1266;97544;-81
2023/05/06 02:33:52;;;;;;;12.30;5.80;;;;;;;6.96;60.37;99473.52;105049;1259;108021;-81
2023/05/06 02:36:20;;;;;;;16.00;6.10;;;;;;;6.94;60.55;99467.28;105039;1257;96650;-81
2023/05/06 02:38:48;;;;;;;13.60;6.20;;;;;;;6.92;60.68;99467.21;105043;1267;96558;-81
2023/05/06 02:41:15;;;;;;;14.70;5.70;;;;;;;6.91;60.62;99473.10;105044;1257;109017;-81
2023/05/06 02:43:43;;;;;;;12.60;5.60;;;;;;;6.89;60.67;99478.83;105058;1263;96682;-80
2023/05/06 02:46:12;;;;;;;13.60;5.80;;;;;;;6.88;60.78;99478.52;105040;1258;107820;-81
2023/05/06 02:48:40;;;;;;;14.80;6.20;;;;;;;6.87;60.76;99477.36;105126;1257;97891;-80
2023/05/06 02:51:08;;;;;;;16.30;5.90;;;;;;;6.84;60.97;99477.68;105051;1256;97406;-80
2023/05/06 02:53:36;;;;;;;13.40;6.00;;;;;;;6.82;60.82;99474.02;105100;1264;110012;-80
2023/05/06 02:56:04;;;;;;;13.10;6.00;;;;;;;6.82;61.00;99472.09;104971;1267;96730;-80
2023/05/06 02:58:33;;;;;;;14.10;6.10;;;;;;;6.82;61.07;99469.30;104974;1268;107817;-80
2023/05/06 03:01:01;;;;;;;15.40;6.10;;;;;;;6.80;61.41;99472.02;105022;1260;97511;-81
2023/05/06 03:03:29;;;;;;;13.30;6.10;;;;;;;6.78;61.18;99468.43;105061;1257;96533;-81
2023/05/06 03:05:57;;;;;;;15.50;6.30;;;;;;;6.77;61.19;99466.01;105125;1266;111076;-80
2023/05/06 03:08:24;;;;;;;14.80;6.00;;;;;;;6.77;61.17;99467.79;105057;1262;96810;-81
2023/05/06 03:10:52;;;;;;;13.60;5.60;;;;;;;6.77;61.25;99475.19;105012;1257;107603;-81
2023/05/06 03:13:20;;;;;;;14.70;6.20;;;;;;;6.76;61.31;99481.59;105117;1261;97487;-81
2023/05/06 03:15:55;;;;;;;13.50;6.40;;;;;;;6.76;61.36;99480.19;105083;1264;97474;-81
2023/05/06 03:18:23;;;;;;;14.80;5.70;;;;;;;6.77;61.40;99486.14;105079;1257;110171;-81
2023/05/06 03:20:50;;;;;;;12.40;5.80;;;;;;;6.77;61.55;99486.62;105041;1257;96637;-80
2023/05/06 03:23:18;;;;;;;14.20;5.60;;;;;;;6.79;61.63;99489.35;105074;1254;108006;-80
2023/05/06 03:25:46;;;;;;;14.90;6.00;;;;;;;6.81;61.49;99489.59;104983;1267;96643;-80
2023/05/06 03:28:14;;;;;;;15.70;6.50;;;;;;;6.83;61.67;99494.25;105051;1266;97911;-80
2023/05/06 03:30:42;;;;;;;14.50;6.30;;;;;;;6.86;61.74;99496.79;105152;1259;108389;-81
2023/05/06 03:33:09;;;;;;;15.20;6.30;;;;;;;6.88;61.76;99496.34;105173;1258;96621;-80
2023/05/06 03:35:37;;;;;;;17.10;6.40;;;;;;;6.90;61.94;99498.52;105198;1251;108900;-81
2023/05/06 03:38:06;;;;;;;13.30;6.70;;;;;;;6.93;61.82;99495.86;105167;1251;97485;-80
2023/05/06 03:40:34;;;;;;;17.30;6.60;;;;;;;6.97;61.84;99495.32;105177;1257;96579;-81
2023/05/06 03:43:02;;;;;;;17.20;6.50;;;;;;;6.98;62.04;99494.02;105312;1264;109193;-80
2023/05/06 03:45:30;;;;;;;16.20;7.20;;;;;;;7.02;61.99;99492.63;105152;1264;96571;-80
2023/05/06 03:47:57;;;;;;;17.50;7.30;;;;;;;7.05;62.14;99489.48;105164;1251;106705;-80
2023/05/06 03:50:25;;;;;;;18.60;7.00;;;;;;;7.07;62.10;99488.82;105194;1263;96564;-81
2023/05/06 03:52:53;;;;;;;14.20;6.80;;;;;;;7.10;62.15;99489.76;105242;1257;96616;-81
2023/05/06 03:55:21;;;;;;;16.30;6.70;;;;;;;7.12;62.34;99486.30;105221;1255;110485;-81
2023/05/06 03:57:49;;;;;;;17.20;6.60;;;;;;;7.14;62.21;99482.11;105197;1256;97295;-80
2023/05/06 04:00:17;;;;;;;12.60;6.30;;;;;;;7.18;62.27;99483.68;105202;1265;106662;-81
2023/05/06 04:02:45;;;;;;;12.50;6.20;;;;;;;7.22;62.18;99481.16;105186;1261;96599;-80
2023/05/06 04:05:13;;;;;;;16.10;7.10;;;;;;;7.27;62.39;99479.36;105237;1257;97429;-81
2023/05/06 04:07:41;;;;;;;15.00;7.20;;;;;;;7.29;62.36;99482.39;105166;1257;109199;-81
2023/05/06 04:10:09;;;;;;;13.60;6.10;;;;;;;7.33;62.58;99484.71;105170;1263;97805;-80
2023/05/06 04:12:36;;;;;;;17.60;7.20;;;;;;;7.37;62.69;99484.30;105221;1256;107828;-80
2023/05/06 04:15:06;;;;;;;18.30;7.80;;;;;;;7.42;62.74;99481.39;105168;1257;97511;-80
2023/05/06 04:17:34;;;;;;;16.90;7.50;;;;;;;7.46;62.65;99484.70;105216;1256;96602;-80
2023/05/06 04:20:10;;;;;;;17.70;7.50;;;;;;;7.51;62.81;99480.73;105192;1264;110894;-80
2023/05/06 04:22:38;;;;;;;18.00;7.80;;;;;;;7.57;62.88;99484.27;105328;1260;96596;-80
2023/05/06 04:25:07;;;;;;;13.90;6.60;;;;;;;7.64;62.91;99483.05;105224;1265;107256;-80
2023/05/06 04:27:35;;;;;;;14.60;6.30;;;;;;;7.72;62.90;99480.67;105243;1255;97542;-80
2023/05/06 04:30:03;;;;;;;16.40;7.50;;;;;;;7.79;63.11;99478.34;105126;1258;97531;-80
2023/05/06 04:32:32;;;;;;;15.80;6.50;;;;;;;7.87;63.01;99471.89;105227;1260;110956;-80
2023/05/06 04:35:01;;;;;;;16.40;6.60;;;;;;;7.95;62.90;99471.98;105346;1256;97156;-80
2023/05/06 04:37:29;;;;;;;16.20;6.40;;;;;;;8.04;63.10;99467.06;105215;1264;106768;-79
2023/05/06 04:39:57;;;;;;;14.00;6.80;;;;;;;8.14;63.30;99467.60;105201;1263;96587;-80
2023/05/06 04:42:25;;;;;;;14.10;6.50;;;;;;;8.26;63.26;99464.08;105183;1258;97826;-80
2023/05/06 04:44:53;;;;;;;17.40;6.90;;;;;;;8.41;63.52;99465.38;105253;1258;109082;-79
2023/05/06 04:47:21;;;;;;;14.40;6.70;;;;;;;8.57;63.56;99472.45;105236;1257;96580;-80
2023/05/06 04:49:49;;;;;;;15.80;6.70;;;;;;;8.71;63.51;99476.05;105196;1266;107828;-80
2023/05/06 04:52:17;;;;;;;13.70;6.80;;;;;;;8.85;63.58;99475.42;105210;1257;96530;-80
2023/05/06 04:54:45;;;;;;;15.00;6.40;;;;;;;9.01;63.52;99469.17;105253;1252;96485;-80
2023/05/06 04:57:13;;;;;;;14.20;6.60;;;;;;;9.19;63.76;99471.11;105207;1261;109487;-81
2023/05/06 04:59:41;;;;;;;16.90;6.40;;;;;;;9.35;63.74;99474.60;105225;1259;96574;-81
2023/05/06 05:02:10;;;;;;;16.40;6.40;;;;;;;9.45;63.63;99474.83;105272;1252;107134;-81
2023/05/06 05:04:38;;;;;;;14.30;6.40;;;;;;;9.56;63.51;99476.30;105393;1257;97502;-80
2023/05/06 05:07:06;;;;;;;13.80;6.10;;;;;;;9.69;63.61;99470.72;105281;1263;96504;-80
2023/05/06 05:09:34;;;;;;;16.50;6.20;;;;;;;9.82;63.57;99470.45;105197;1251;111071;-80
2023/05/06 05:12:02;;;;;;;13.80;5.90;;;;;;;9.92;63.59;99470.70;105183;1256;97796;-80
2023/05/06 05:14:30;;;;;;;15.10;6.20;;;;;;;10.03;63.45;99468.05;105193;1257;107203;-80
2023/05/06 05:16:58;;;;;;;13.10;6.40;;;;;;;10.15;63.57;99471.89;105196;1256;96617;-81
2023/05/06 05:19:26;;;;;;;15.40;6.10;;;;;;;10.29;63.54;99469.97;105201;1260;96661;-80
2023/05/06 05:21:54;;;;;;;13.20;5.40;;;;;;;10.35;63.43;99463.71;105219;1264;110882;-80
2023/05/06 05:24:21;;;;;;;16.50;6.70;;;;;;;10.42;63.59;99466.64;105145;1258;97146;-81
2023/05/06 05:26:49;;;;;;;13.40;6.00;;;;;;;10.52;63.55;99464.95;105160;1251;107988;-80
2023/05/06 05:29:17;;;;;;;12.90;6.10;;;;;;;10.63;63.47;99460.88;105223;1257;97064;-81
2023/05/06 05:31:45;;;;;;;17.60;6.40;;;;;;;10.72;63.54;99458.33;105010;1270;96584;-81
2023/05/06 05:34:13;;;;;;;17.10;6.30;;;;;;;10.80;63.37;99455.85;105092;1258;110162;-81
2023/05/06 05:36:41;;;;;;;13.90;6.30;;;;;;;10.85;63.33;99456.15;105056;1265;96674;-79
2023/05/06 05:39:09;;;;;;;14.00;6.00;;;;;;;10.86;63.19;99456.67;105057;1266;108612;-80
2023/05/06 05:41:37;;;;;;;18.30;5.70;;;;;;;10.87;63.14;99456.58;105043;1257;97801;-79
2023/05/06 05:44:04;;;;;;;13.50;5.50;;;;;;;10.93;63.17;99449.65;105082;1256;97534;-80
2023/05/06 05:46:33;;;;;;;15.50;6.10;;;;;;;11.03;63.40;99450.01;105021;1254;109837;-80
2023/05/06 05:49:01;;;;;;;13.20;6.10;;;;;;;11.19;63.49;99453.72;105105;1264;96590;-80
2023/05/06 05:51:28;;;;;;;14.00;6.00;;;;;;;11.30;63.42;99454.40;105016;1266;107275;-79
2023/05/06 05:53:56;;;;;;;14.60;6.10;;;;;;;11.38;63.31;99455.63;105078;1257;96593;-79
2023/05/06 05:56:24;;;;;;;18.10;6.90;;;;;;;11.48;63.31;99455.27;105074;1260;96567;-79
2023/05/06 05:58:52;;;;;;;15.60;5.80;;;;;;;11.61;63.26;99455.77;105097;1257;111574;-79
2023/05/06 06:01:20;;;;;;;15.20;5.70;;;;;;;11.75;63.07;99451.92;105106;1259;97411;-80
2023/05/06 06:03:48;;;;;;;15.10;5.40;;;;;;;11.94;63.27;99457.92;105067;1258;107823;-80
2023/05/06 06:06:16;;;;;;;16.60;6.10;;;;;;;12.11;63.03;99454.23;105102;1254;97525;-80
2023/05/06 06:08:44;;;;;;;15.60;5.70;;;;;;;12.17;62.90;99453.94;105167;1266;96555;-79
2023/05/06 06:11:12;;;;;;;11.60;5.50;;;;;;;12.16;62.81;99450.66;105117;1258;108879;-80
2023/05/06 06:13:39;;;;;;;13.70;5.80;;;;;;;12.14;62.77;99451.64;105976;1253;96580;-80
2023/05/06 06:16:08;;;;;;;12.30;5.40;;;;;;;12.16;62.92;99457.23;105702;1255;107850;-80
2023/05/06 06:18:36;;;;;;;14.00;6.00;;;;;;;12.18;62.97;99461.13;105159;1258;96626;-80
2023/05/06 06:21:04;;;;;;;13.90;6.00;;;;;;;12.18;62.74;99464.52;105051;1258;96603;-80
2023/05/06 06:23:31;;;;;;;13.50;5.20;;;;;;;12.12;62.57;99470.36;105102;1265;108780;-81
2023/05/06 06:26:02;;;;;;;15.00;6.10;;;;;;;12.06;62.61;99474.48;105080;1257;96821;-80
2023/05/06 06:28:30;;;;;;;14.20;5.90;;;;;;;12.05;62.61;99471.15;105129;1257;107611;-80
2023/05/06 06:30:58;;;;;;;14.90;6.10;;;;;;;12.08;62.56;99472.17;105190;1254;96680;-81
2023/05/06 06:33:26;;;;;;;15.70;5.80;;;;;;;12.12;62.50;99473.10;105242;1258;97054;-81
2023/05/06 06:35:54;;;;;;;13.80;6.10;;;;;;;12.17;62.44;99470.51;105190;1257;109920;-81
2023/05/06 06:38:22;;;;;;;14.30;5.90;;;;;;;12.21;62.57;99467.85;105215;1251;96583;-80
2023/05/06 06:40:49;;;;;;;12.90;5.80;;;;;;;12.30;62.40;99463.70;105196;1251;105713;-80
2023/05/06 06:43:18;;;;;;;14.90;5.40;;;;;;;12.38;62.49;99466.11;105188;1257;96514;-80
2023/05/06 06:45:47;;;;;;;16.70;5.80;;;;;;;12.42;62.39;99465.51;105163;1257;96638;-79
2023/05/06 06:48:15;;;;;;;18.60;5.70;;;;;;;12.45;62.29;99464.51;105193;1265;109924;-79
2023/05/06 06:50:43;;;;;;;15.20;6.50;;;;;;;12.56;62.50;99462.13;105248;1263;96646;-79
2023/05/06 06:53:10;;;;;;;14.90;5.90;;;;;;;12.68;62.35;99463.54;105192;1255;108649;-79
2023/05/06 06:55:42;;;;;;;11.80;5.70;;;;;;;12.74;62.23;99462.38;105135;1265;96574;-79
2023/05/06 06:58:11;;;;;;;15.30;5.70;;;;;;;12.77;62.22;99455.38;105231;1258;96649;-79
2023/05/06 07:00:39;;;;;;;15.50;6.20;;;;;;;12.88;62.48;99453.68;105258;1257;109814;-79
2023/05/06 07:03:07;;;;;;;17.00;5.70;;;;;;;12.96;62.28;99458.92;105230;1251;96606;-80
2023/05/06 07:05:34;;;;;;;16.50;6.10;;;;;;;13.09;62.23;99461.35;105193;1258;108054;-80
2023/05/06 07:08:02;;;;;;;14.50;5.90;;;;;;;13.23;61.98;99460.98;105299;1257;96569;-79
2023/05/06 07:10:30;;;;;;;17.90;7.00;;;;;;;13.37;61.96;99461.00;105275;1254;96580;-80
2023/05/06 07:12:58;;;;;;;12.80;5.70;;;;;;;13.47;61.99;99458.30;105192;1257;110782;-80
2023/05/06 07:15:26;;;;;;;13.60;5.80;;;;;;;13.58;62.03;99455.45;105415;1258;96760;-84
2023/05/06 07:17:54;;;;;;;12.90;6.10;;;;;;;13.62;61.84;99452.16;105493;1250;108946;-84
2023/05/06 07:20:22;;;;;;;12.60;5.80;;;;;;;13.66;61.94;99449.50;105470;1251;96583;-84
2023/05/06 07:22:50;;;;;;;15.20;5.80;;;;;;;13.76;61.59;99446.95;106644;1251;96599;-82
2023/05/06 07:25:17;;;;;;;16.20;5.80;;;;;;;13.86;61.61;99448.08;106675;1256;111145;-83
2023/05/06 07:27:45;;;;;;;13.80;5.00;;;;;;;14.07;61.85;99451.42;106002;1251;97901;-83
2023/05/06 07:30:14;;;;;;;16.20;5.70;;;;;;;14.25;61.60;99451.56;105735;1257;107413;-81
2023/05/06 07:32:42;;;;;;;13.40;6.00;;;;;;;14.29;61.31;99451.92;105869;1257;97058;-81
2023/05/06 07:35:10;;;;;;;12.10;5.20;;;;;;;14.37;61.42;99446.80;105660;1257;96658;-77
2023/05/06 07:37:38;;;;;;;13.50;5.60;;;;;;;14.46;61.38;99448.45;105906;1251;112333;-78
2023/05/06 07:40:07;;;;;;;14.50;5.40;;;;;;;14.47;61.08;99447.82;106285;1250;96590;-78
2023/05/06 07:42:34;;;;;;;16.10;6.10;;;;;;;14.51;61.44;99438.52;106661;1255;106875;-78
2023/05/06 07:45:04;;;;;;;13.10;5.40;;;;;;;14.57;61.10;99434.82;106379;1256;96580;-80
2023/05/06 07:47:35;;;;;;;15.70;6.30;;;;;;;14.58;60.77;99433.82;105545;1251;96558;-80
2023/05/06 07:50:05;;;;;;;14.40;5.50;;;;;;;14.61;60.96;99428.97;105581;1257;109127;-82
2023/05/06 07:52:33;;;;;;;14.80;6.00;;;;;;;14.67;61.00;99428.52;105605;1257;96663;-83
2023/05/06 07:55:01;;;;;;;15.30;5.50;;;;;;;14.79;60.94;99422.65;105682;1257;108545;-84
2023/05/06 07:57:29;;;;;;;15.60;5.60;;;;;;;14.92;60.58;99414.64;106168;1255;97908;-83
2023/05/06 07:59:57;;;;;;;21.80;6.50;;;;;;;14.98;60.43;99412.17;106551;1251;96512;-82
2023/05/06 08:02:25;;;;;;;11.50;5.20;;;;;;;15.06;60.43;99409.29;105810;1251;110940;-81
2023/05/06 08:04:53;;;;;;;15.30;5.40;;;;;;;15.17;60.41;99411.40;105825;1251;97505;-82
2023/05/06 08:07:21;;;;;;;10.90;5.40;;;;;;;15.32;60.68;99412.66;105567;1257;108816;-82
2023/05/06 08:09:50;;;;;;;14.70;5.30;;;;;;;15.48;60.33;99416.45;105719;1267;96712;-79
2023/05/06 08:12:17;;;;;;;12.10;5.50;;;;;;;15.58;60.22;99418.27;105428;1255;97777;-82
2023/05/06 08:14:45;;;;;;;13.20;5.20;;;;;;;15.63;60.19;99411.55;105527;1250;109497;-82
2023/05/06 08:17:13;;;;;;;12.60;5.50;;;;;;;15.68;59.53;99412.35;105560;1255;97915;-83
2023/05/06 08:19:41;;;;;;;13.50;5.10;;;;;;;15.67;59.69;99411.90;105544;1251;107592;-82
2023/05/06 08:22:08;;;;;;;11.50;5.10;;;;;;;15.77;60.07;99409.80;105441;1256;97782;-83
2023/05/06 08:24:36;;;;;;;16.00;5.90;;;;;;;15.86;59.90;99411.33;105634;1258;97801;-81
2023/05/06 08:27:04;;;;;;;11.40;5.00;;;;;;;15.88;59.47;99403.80;105623;1251;109359;-81
2023/05/06 08:29:32;;;;;;;12.90;5.30;;;;;;;15.97;59.53;99400.89;105566;1255;97483;-82
2023/05/06 08:32:00;;;;;;;15.30;5.50;;;;;;;16.10;59.40;99394.04;105603;1257;106959;-83
2023/05/06 08:34:28;;;;;;;11.50;5.30;;;;;;;16.25;59.51;99392.49;105432;1257;97791;-82
2023/05/06 08:36:56;;;;;;;11.50;5.40;;;;;;;16.36;59.42;99390.79;105532;1256;97329;-82
2023/05/06 08:39:24;;;;;;;16.40;5.30;;;;;;;16.42;59.30;99399.65;105651;1250;109486;-83
2023/05/06 08:41:55;;;;;;;14.20;5.50;;;;;;;16.45;59.43;99397.96;105455;1250;96571;-82
2023/05/06 08:44:24;;;;;;;16.90;5.70;;;;;;;16.52;59.23;99397.50;105449;1251;108459;-81
2023/05/06 08:46:51;;;;;;;13.30;5.20;;;;;;;16.58;58.96;99391.77;105665;1250;96577;-81
2023/05/06 08:49:20;;;;;;;11.70;5.30;;;;;;;16.70;59.30;99392.45;105471;1251;96682;-83
2023/05/06 08:51:51;;;;;;;11.30;5.40;;;;;;;16.85;58.77;99394.65;105561;1251;109362;-83
2023/05/06 08:54:24;;;;;;;9.50;4.60;;;;;;;16.97;58.85;99390.02;105537;1257;97804;-81
2023/05/06 08:56:56;;;;;;;12.10;4.80;;;;;;;17.07;58.64;99393.89;105492;1251;106645;-83
2023/05/06 08:59:25;;;;;;;11.60;5.20;;;;;;;17.21;58.85;99393.66;105650;1250;97958;-83
2023/05/06 09:01:53;;;;;;;9.80;4.40;;;;;;;17.29;58.46;99395.64;105618;1250;97566;-81
2023/05/06 09:04:21;;;;;;;13.00;4.60;;;;;;;17.30;57.69;99389.84;105710;1255;109855;-82
2023/05/06 09:06:49;;;;;;;15.30;5.10;;;;;;;17.24;58.05;99387.77;105695;1251;97485;-79
2023/05/06 09:09:17;;;;;;;17.60;4.80;;;;;;;17.27;58.40;99382.88;105645;1251;106536;-80
2023/05/06 09:11:52;;;;;;;15.60;4.80;;;;;;;17.27;58.11;99382.57;105416;1257;96510;-79
2023/05/06 09:14:21;;;;;;;13.30;5.10;;;;;;;17.25;57.97;99382.38;105429;1251;96577;-82
2023/05/06 09:16:51;;;;;;;13.60;5.30;;;;;;;17.25;58.09;99387.52;105449;1255;109482;-79
2023/05/06 09:19:21;;;;;;;13.00;4.90;;;;;;;17.20;57.80;99384.65;105972;1251;96565;-81
2023/05/06 09:21:50;;;;;;;15.50;5.20;;;;;;;17.09;57.30;99379.23;105500;1257;106910;-82
2023/05/06 09:24:19;;;;;;;10.60;4.80;;;;;;;16.98;57.55;99378.77;105724;1256;97898;-82
2023/05/06 09:26:50;;;;;;;13.90;4.90;;;;;;;16.92;57.56;99374.11;105719;1250;97780;-82
2023/05/06 09:29:17;;;;;;;12.60;5.60;;;;;;;16.88;57.16;99368.59;105871;1257;109485;-81
2023/05/06 09:31:46;;;;;;;15.80;5.90;;;;;;;16.88;57.03;99366.84;105786;1257;97855;-81
2023/05/06 09:34:16;;;;;;;15.00;5.10;;;;;;;16.86;56.97;99362.71;105522;1252;107912;-79
2023/05/06 09:36:44;;;;;;;14.30;5.50;;;;;;;16.85;56.65;99362.45;105570;1266;96653;-76
2023/05/06 09:39:12;;;;;;;14.50;5.80;;;;;;;16.82;56.61;99357.54;105501;1256;96689;-76
2023/05/06 09:41:41;;;;;;;13.00;5.50;;;;;;;16.83;56.60;99358.51;105577;1251;110321;-81
2023/05/06 09:44:10;;;;;;;13.50;6.20;;;;;;;16.86;56.58;99351.26;105610;1257;96673;-82
2023/05/06 09:46:39;;;;;;;13.00;5.90;;;;;;;16.93;56.29;99354.00;105727;1250;108139;-82
2023/05/06 09:49:07;;;;;;;17.20;5.40;;;;;;;16.95;56.31;99355.63;105565;1250;96573;-81
2023/05/06 09:51:35;;;;;;;10.40;5.10;;;;;;;16.98;56.35;99350.45;105599;1257;96695;-82
2023/05/06 09:54:04;;;;;;;15.50;5.30;;;;;;;17.05;56.42;99345.77;105649;1250;111144;-79
2023/05/06 09:56:33;;;;;;;11.90;4.90;;;;;;;17.16;56.25;99342.89;105608;1257;97498;-80
2023/05/06 09:59:03;;;;;;;12.20;4.60;;;;;;;17.18;56.25;99337.68;105529;1252;106824;-82
2023/05/06 10:01:33;;;;;;;16.30;5.70;;;;;;;17.28;56.52;99331.70;105608;1253;98015;-80
2023/05/06 10:04:08;;;;;;;13.10;5.20;;;;;;;17.42;56.32;99324.65;105719;1257;97489;-80
2023/05/06 10:06:40;;;;;;;16.80;5.20;;;;;;;17.54;56.16;99327.07;105490;1251;109901;-81
2023/05/06 10:09:09;;;;;;;13.40;5.20;;;;;;;17.67;56.32;99322.73;105572;1256;96506;-81
2023/05/06 10:11:38;;;;;;;13.20;5.10;;;;;;;17.74;55.93;99312.75;105352;1250;107790;-80
2023/05/06 10:14:06;;;;;;;11.50;4.50;;;;;;;17.80;56.10;99307.09;105634;1255;96571;-80
2023/05/06 10:16:35;;;;;;;9.10;4.60;;;;;;;17.88;55.86;99301.73;106071;1257;96590;-82
2023/05/06 10:19:06;;;;;;;15.70;5.00;;;;;;;17.94;55.94;99299.98;107789;1250;110042;-79
2023/05/06 10:21:39;;;;;;;11.80;4.80;;;;;;;18.04;55.83;99297.42;106127;1250;97909;-80
2023/05/06 10:24:12;;;;;;;11.20;4.80;;;;;;;18.13;55.65;99301.36;106334;1256;108937;-80
2023/05/06 10:26:43;;;;;;;13.80;5.10;;;;;;;18.20;55.60;99296.04;108824;1250;94486;-79
2023/05/06 10:29:12;;;;;;;15.20;5.90;;;;;;;18.30;55.60;99287.84;106513;1251;96590;-79
2023/05/06 10:31:48;;;;;;;16.50;5.40;;;;;;;18.38;55.47;99285.91;105771;1257;110164;-79
2023/05/06 10:34:20;;;;;;;15.00;5.00;;;;;;;18.44;55.20;99278.69;106013;1251;96508;-81
2023/05/06 10:36:52;;;;;;;10.30;4.90;;;;;;;18.55;55.12;99277.81;105512;1256;107596;-80
2023/05/06 10:39:20;;;;;;;13.70;5.10;;;;;;;18.62;55.18;99269.65;105853;1251;96600;-80
2023/05/06 10:41:48;;;;;;;12.00;4.90;;;;;;;18.70;55.13;99271.52;105824;1250;96949;-81
2023/05/06 10:44:16;;;;;;;14.80;5.30;;;;;;;18.76;55.16;99258.52;105292;1258;110071;-81
2023/05/06 10:47:04;;;;;;;11.20;5.20;;;;;;;18.87;54.58;99253.65;105434;1257;96615;-80
2023/05/06 10:49:32;;;;;;;12.60;5.30;;;;;;;18.84;54.34;99251.23;105405;1256;107786;-79
2023/05/06 10:52:12;;;;;;;12.60;5.00;;;;;;;18.80;54.79;99248.92;107059;1251;97900;-80
2023/05/06 10:54:49;;;;;;;13.20;4.90;;;;;;;18.81;54.45;99244.32;105930;1251;96511;-80
2023/05/06 10:57:20;;;;;;;12.40;5.30;;;;;;;18.86;54.71;99237.52;107226;1250;111106;-81
2023/05/06 10:59:48;;;;;;;14.30;5.20;;;;;;;18.83;54.39;99235.51;105980;1250;96590;-80
2023/05/06 11:02:19;;;;;;;14.20;4.70;;;;;;;18.80;54.11;99232.76;105730;1251;108449;-81
2023/05/06 11:04:58;;;;;;;19.30;5.80;;;;;;;18.80;53.36;99232.65;105844;1251;96565;-80
2023/05/06 11:07:26;;;;;;;9.50;4.50;;;;;;;18.85;54.04;99222.41;105992;1251;96502;-80
2023/05/06 11:09:59;;;;;;;13.10;5.20;;;;;;;19.00;54.32;99224.48;105591;1257;109565;-80
2023/05/06 11:12:44;;;;;;;16.10;5.40;;;;;;;19.13;54.21;99223.27;105321;1266;97080;-83
2023/05/06 11:15:20;;;;;;;13.60;5.10;;;;;;;19.34;54.34;99217.99;105528;1257;106788;-83
2023/05/06 11:17:47;;;;;;;18.20;5.40;;;;;;;19.54;54.26;99215.55;105585;1252;96567;-82
2023/05/06 11:20:20;;;;;;;13.60;5.10;;;;;;;19.65;54.14;99211.45;105484;1256;96602;-83
2023/05/06 11:22:49;;;;;;;11.60;4.60;;;;;;;19.71;53.80;99207.53;105563;1257;109865;-82
2023/05/06 11:25:40;;;;;;;15.20;4.80;;;;;;;19.74;53.73;99201.47;105422;1258;97190;-79